Terminal Aerodrome Forecast
Issued by NWS

Current Version | Previous Version | Graphics & Text | Print | Product List | Glossary On
Versions: 1 2 3 4 5 6 7 8 9 10 11 12
000
FTUS41 KRNK 242320
TAFLWB
TAF
KLWB 242320Z 2500/2524 30006KT P6SM SCT060
     FM250800 VRB03KT 3SM BR SCT050
      TEMPO 2508/2511 1/2SM FG BKN001
     FM251500 29010KT P6SM FEW050=

USA.gov is the U.S. government's official web portal to all federal, state and local government web resources and services.